sensor_id;sensor_type;location;lat;lon;timestamp;P1;durP1;ratioP1;P2;durP2;ratioP2
43919;SDS011;29578;51.946;5.874;2023-10-08T00:00:24;1.33;;;0.80;;
43919;SDS011;29578;51.946;5.874;2023-10-08T00:03:09;1.52;;;0.75;;
43919;SDS011;29578;51.946;5.874;2023-10-08T00:05:36;1.77;;;0.90;;
43919;SDS011;29578;51.946;5.874;2023-10-08T00:08:03;2.50;;;1.10;;
43919;SDS011;29578;51.946;5.874;2023-10-08T00:10:39;2.92;;;1.05;;
43919;SDS011;29578;51.946;5.874;2023-10-08T00:13:07;2.60;;;1.05;;
43919;SDS011;29578;51.946;5.874;2023-10-08T00:15:35;2.60;;;0.98;;
43919;SDS011;29578;51.946;5.874;2023-10-08T00:18:02;1.52;;;0.90;;
43919;SDS011;29578;51.946;5.874;2023-10-08T00:20:32;1.63;;;0.65;;
43919;SDS011;29578;51.946;5.874;2023-10-08T00:23:02;1.95;;;0.90;;
43919;SDS011;29578;51.946;5.874;2023-10-08T00:25:33;1.73;;;0.80;;
43919;SDS011;29578;51.946;5.874;2023-10-08T00:27:59;2.58;;;0.98;;
43919;SDS011;29578;51.946;5.874;2023-10-08T00:30:27;2.53;;;0.95;;
43919;SDS011;29578;51.946;5.874;2023-10-08T00:32:52;3.80;;;1.25;;
43919;SDS011;29578;51.946;5.874;2023-10-08T00:35:18;1.85;;;0.88;;
43919;SDS011;29578;51.946;5.874;2023-10-08T00:37:46;2.15;;;0.90;;
43919;SDS011;29578;51.946;5.874;2023-10-08T00:40:13;2.95;;;1.25;;
43919;SDS011;29578;51.946;5.874;2023-10-08T00:42:46;4.32;;;1.15;;
43919;SDS011;29578;51.946;5.874;2023-10-08T00:45:12;4.40;;;1.48;;
43919;SDS011;29578;51.946;5.874;2023-10-08T00:47:40;2.10;;;1.00;;
43919;SDS011;29578;51.946;5.874;2023-10-08T00:50:09;2.58;;;1.20;;
43919;SDS011;29578;51.946;5.874;2023-10-08T00:52:44;2.83;;;0.90;;
43919;SDS011;29578;51.946;5.874;2023-10-08T00:55:22;2.50;;;1.17;;
43919;SDS011;29578;51.946;5.874;2023-10-08T00:57:55;2.97;;;1.00;;
43919;SDS011;29578;51.946;5.874;2023-10-08T01:00:24;1.42;;;0.77;;
43919;SDS011;29578;51.946;5.874;2023-10-08T01:02:58;1.52;;;0.95;;
43919;SDS011;29578;51.946;5.874;2023-10-08T01:05:26;1.58;;;0.93;;
43919;SDS011;29578;51.946;5.874;2023-10-08T01:08:03;2.95;;;1.17;;
43919;SDS011;29578;51.946;5.874;2023-10-08T01:10:31;2.20;;;1.13;;
43919;SDS011;29578;51.946;5.874;2023-10-08T01:12:57;1.83;;;0.90;;
43919;SDS011;29578;51.946;5.874;2023-10-08T01:15:30;3.60;;;1.05;;
43919;SDS011;29578;51.946;5.874;2023-10-08T01:18:00;2.63;;;1.15;;
43919;SDS011;29578;51.946;5.874;2023-10-08T01:20:29;2.33;;;0.80;;
43919;SDS011;29578;51.946;5.874;2023-10-08T01:23:06;2.10;;;0.85;;
43919;SDS011;29578;51.946;5.874;2023-10-08T01:25:38;1.88;;;1.00;;
43919;SDS011;29578;51.946;5.874;2023-10-08T01:28:06;1.50;;;0.73;;
43919;SDS011;29578;51.946;5.874;2023-10-08T01:30:44;1.98;;;0.90;;
43919;SDS011;29578;51.946;5.874;2023-10-08T01:33:12;2.17;;;1.10;;
43919;SDS011;29578;51.946;5.874;2023-10-08T01:35:40;3.70;;;1.30;;
43919;SDS011;29578;51.946;5.874;2023-10-08T01:38:06;3.55;;;1.50;;
43919;SDS011;29578;51.946;5.874;2023-10-08T01:40:33;4.45;;;1.90;;
43919;SDS011;29578;51.946;5.874;2023-10-08T01:42:59;5.65;;;2.38;;
43919;SDS011;29578;51.946;5.874;2023-10-08T01:45:25;4.95;;;2.47;;
43919;SDS011;29578;51.946;5.874;2023-10-08T01:47:52;5.75;;;2.08;;
43919;SDS011;29578;51.946;5.874;2023-10-08T01:50:20;4.63;;;2.20;;
43919;SDS011;29578;51.946;5.874;2023-10-08T01:52:48;4.80;;;2.33;;
43919;SDS011;29578;51.946;5.874;2023-10-08T01:55:16;4.55;;;2.20;;
43919;SDS011;29578;51.946;5.874;2023-10-08T01:57:45;3.55;;;1.60;;
43919;SDS011;29578;51.946;5.874;2023-10-08T02:00:12;2.78;;;1.40;;
43919;SDS011;29578;51.946;5.874;2023-10-08T02:02:46;3.13;;;1.10;;
43919;SDS011;29578;51.946;5.874;2023-10-08T02:05:12;3.78;;;1.63;;
43919;SDS011;29578;51.946;5.874;2023-10-08T02:07:40;2.70;;;1.40;;
43919;SDS011;29578;51.946;5.874;2023-10-08T02:10:09;2.67;;;1.60;;
43919;SDS011;29578;51.946;5.874;2023-10-08T02:12:36;2.80;;;1.30;;
43919;SDS011;29578;51.946;5.874;2023-10-08T02:15:03;2.47;;;1.20;;
43919;SDS011;29578;51.946;5.874;2023-10-08T02:17:32;1.77;;;1.10;;
43919;SDS011;29578;51.946;5.874;2023-10-08T02:19:58;3.75;;;1.20;;
43919;SDS011;29578;51.946;5.874;2023-10-08T02:22:24;1.38;;;1.00;;
43919;SDS011;29578;51.946;5.874;2023-10-08T02:24:50;1.92;;;0.93;;
43919;SDS011;29578;51.946;5.874;2023-10-08T02:27:16;2.33;;;0.90;;
43919;SDS011;29578;51.946;5.874;2023-10-08T02:29:42;2.05;;;0.82;;
43919;SDS011;29578;51.946;5.874;2023-10-08T02:32:08;2.72;;;1.23;;
43919;SDS011;29578;51.946;5.874;2023-10-08T02:34:34;1.83;;;0.90;;
43919;SDS011;29578;51.946;5.874;2023-10-08T02:37:00;1.67;;;1.10;;
43919;SDS011;29578;51.946;5.874;2023-10-08T02:39:28;1.75;;;1.10;;
43919;SDS011;29578;51.946;5.874;2023-10-08T02:41:57;1.60;;;0.82;;
43919;SDS011;29578;51.946;5.874;2023-10-08T02:44:24;3.33;;;1.20;;
43919;SDS011;29578;51.946;5.874;2023-10-08T02:46:51;1.20;;;0.80;;
43919;SDS011;29578;51.946;5.874;2023-10-08T02:49:18;2.75;;;1.17;;
43919;SDS011;29578;51.946;5.874;2023-10-08T02:51:46;2.97;;;1.20;;
43919;SDS011;29578;51.946;5.874;2023-10-08T02:54:15;3.05;;;1.10;;
43919;SDS011;29578;51.946;5.874;2023-10-08T02:56:44;3.30;;;1.13;;
43919;SDS011;29578;51.946;5.874;2023-10-08T02:59:11;2.20;;;0.90;;
43919;SDS011;29578;51.946;5.874;2023-10-08T03:01:38;3.28;;;1.27;;
43919;SDS011;29578;51.946;5.874;2023-10-08T03:04:06;0.82;;;0.70;;
43919;SDS011;29578;51.946;5.874;2023-10-08T03:06:42;2.67;;;1.02;;
43919;SDS011;29578;51.946;5.874;2023-10-08T03:09:09;1.55;;;1.08;;
43919;SDS011;29578;51.946;5.874;2023-10-08T03:11:38;2.42;;;1.27;;
43919;SDS011;29578;51.946;5.874;2023-10-08T03:14:05;5.75;;;1.38;;
43919;SDS011;29578;51.946;5.874;2023-10-08T03:16:39;1.58;;;1.08;;
43919;SDS011;29578;51.946;5.874;2023-10-08T03:19:13;2.92;;;1.20;;
43919;SDS011;29578;51.946;5.874;2023-10-08T03:21:39;3.92;;;1.30;;
43919;SDS011;29578;51.946;5.874;2023-10-08T03:24:14;2.13;;;1.00;;
43919;SDS011;29578;51.946;5.874;2023-10-08T03:26:56;1.55;;;1.00;;
43919;SDS011;29578;51.946;5.874;2023-10-08T03:29:37;1.17;;;0.75;;
43919;SDS011;29578;51.946;5.874;2023-10-08T03:32:08;1.55;;;1.02;;
43919;SDS011;29578;51.946;5.874;2023-10-08T03:34:39;3.00;;;1.25;;
43919;SDS011;29578;51.946;5.874;2023-10-08T03:37:08;2.58;;;1.20;;
43919;SDS011;29578;51.946;5.874;2023-10-08T03:39:39;2.20;;;1.13;;
43919;SDS011;29578;51.946;5.874;2023-10-08T03:42:19;1.75;;;0.80;;
43919;SDS011;29578;51.946;5.874;2023-10-08T03:44:47;1.80;;;1.00;;
43919;SDS011;29578;51.946;5.874;2023-10-08T03:47:16;1.92;;;0.90;;
43919;SDS011;29578;51.946;5.874;2023-10-08T03:49:45;1.77;;;0.93;;
43919;SDS011;29578;51.946;5.874;2023-10-08T03:52:16;2.67;;;1.00;;
43919;SDS011;29578;51.946;5.874;2023-10-08T03:54:44;1.90;;;1.13;;
43919;SDS011;29578;51.946;5.874;2023-10-08T03:57:14;1.33;;;0.90;;
43919;SDS011;29578;51.946;5.874;2023-10-08T03:59:44;2.78;;;1.30;;
43919;SDS011;29578;51.946;5.874;2023-10-08T04:02:13;2.42;;;1.40;;
43919;SDS011;29578;51.946;5.874;2023-10-08T04:04:41;2.92;;;1.30;;
43919;SDS011;29578;51.946;5.874;2023-10-08T04:07:17;3.70;;;1.38;;
43919;SDS011;29578;51.946;5.874;2023-10-08T04:09:55;2.22;;;1.10;;
43919;SDS011;29578;51.946;5.874;2023-10-08T04:12:42;1.92;;;0.75;;
43919;SDS011;29578;51.946;5.874;2023-10-08T04:15:10;1.25;;;0.90;;
43919;SDS011;29578;51.946;5.874;2023-10-08T04:17:38;1.65;;;0.88;;
43919;SDS011;29578;51.946;5.874;2023-10-08T04:20:16;0.77;;;0.70;;
43919;SDS011;29578;51.946;5.874;2023-10-08T04:22:52;1.58;;;0.57;;
43919;SDS011;29578;51.946;5.874;2023-10-08T04:25:19;1.75;;;0.90;;
43919;SDS011;29578;51.946;5.874;2023-10-08T04:27:45;2.08;;;1.20;;
43919;SDS011;29578;51.946;5.874;2023-10-08T04:30:15;1.90;;;1.10;;
43919;SDS011;29578;51.946;5.874;2023-10-08T04:32:41;1.70;;;1.15;;
43919;SDS011;29578;51.946;5.874;2023-10-08T04:35:07;2.25;;;1.10;;
43919;SDS011;29578;51.946;5.874;2023-10-08T04:37:39;1.25;;;0.95;;
43919;SDS011;29578;51.946;5.874;2023-10-08T04:40:06;2.17;;;1.02;;
43919;SDS011;29578;51.946;5.874;2023-10-08T04:42:41;2.00;;;0.90;;
43919;SDS011;29578;51.946;5.874;2023-10-08T04:45:10;1.85;;;0.90;;
43919;SDS011;29578;51.946;5.874;2023-10-08T04:47:39;1.75;;;1.27;;
43919;SDS011;29578;51.946;5.874;2023-10-08T04:50:07;2.40;;;0.90;;
43919;SDS011;29578;51.946;5.874;2023-10-08T04:52:40;3.03;;;1.20;;
43919;SDS011;29578;51.946;5.874;2023-10-08T04:55:12;3.22;;;1.20;;
43919;SDS011;29578;51.946;5.874;2023-10-08T04:57:44;1.73;;;0.95;;
43919;SDS011;29578;51.946;5.874;2023-10-08T05:00:11;1.92;;;1.02;;
43919;SDS011;29578;51.946;5.874;2023-10-08T05:02:40;1.63;;;1.00;;
43919;SDS011;29578;51.946;5.874;2023-10-08T05:05:15;3.17;;;1.30;;
43919;SDS011;29578;51.946;5.874;2023-10-08T05:07:54;2.20;;;1.00;;
43919;SDS011;29578;51.946;5.874;2023-10-08T05:10:25;2.45;;;0.82;;
43919;SDS011;29578;51.946;5.874;2023-10-08T05:13:09;0.68;;;0.63;;
43919;SDS011;29578;51.946;5.874;2023-10-08T05:15:43;2.20;;;1.05;;
43919;SDS011;29578;51.946;5.874;2023-10-08T05:18:29;1.20;;;0.70;;
43919;SDS011;29578;51.946;5.874;2023-10-08T05:21:14;1.52;;;0.70;;
43919;SDS011;29578;51.946;5.874;2023-10-08T05:23:51;0.88;;;0.73;;
43919;SDS011;29578;51.946;5.874;2023-10-08T05:26:33;1.52;;;0.73;;
43919;SDS011;29578;51.946;5.874;2023-10-08T05:29:07;2.05;;;0.95;;
43919;SDS011;29578;51.946;5.874;2023-10-08T05:31:53;2.67;;;0.80;;
43919;SDS011;29578;51.946;5.874;2023-10-08T05:34:40;2.45;;;0.80;;
43919;SDS011;29578;51.946;5.874;2023-10-08T05:37:21;2.97;;;0.75;;
43919;SDS011;29578;51.946;5.874;2023-10-08T05:39:58;1.55;;;0.40;;
43919;SDS011;29578;51.946;5.874;2023-10-08T05:42:44;2.30;;;0.88;;
43919;SDS011;29578;51.946;5.874;2023-10-08T05:45:12;1.50;;;0.70;;
43919;SDS011;29578;51.946;5.874;2023-10-08T05:47:39;0.68;;;0.65;;
43919;SDS011;29578;51.946;5.874;2023-10-08T05:50:16;1.30;;;0.50;;
43919;SDS011;29578;51.946;5.874;2023-10-08T05:52:58;1.42;;;0.65;;
43919;SDS011;29578;51.946;5.874;2023-10-08T05:55:40;0.88;;;0.47;;
43919;SDS011;29578;51.946;5.874;2023-10-08T05:58:12;1.05;;;0.68;;
43919;SDS011;29578;51.946;5.874;2023-10-08T06:00:42;2.13;;;0.80;;
43919;SDS011;29578;51.946;5.874;2023-10-08T06:03:29;1.13;;;0.60;;
43919;SDS011;29578;51.946;5.874;2023-10-08T06:06:01;1.65;;;0.60;;
43919;SDS011;29578;51.946;5.874;2023-10-08T06:08:47;1.33;;;0.70;;
43919;SDS011;29578;51.946;5.874;2023-10-08T06:11:16;1.45;;;0.65;;
43919;SDS011;29578;51.946;5.874;2023-10-08T06:13:57;1.98;;;0.85;;
43919;SDS011;29578;51.946;5.874;2023-10-08T06:16:26;2.33;;;0.95;;
43919;SDS011;29578;51.946;5.874;2023-10-08T06:21:34;1.67;;;0.80;;
43919;SDS011;29578;51.946;5.874;2023-10-08T06:24:03;0.73;;;0.60;;
43919;SDS011;29578;51.946;5.874;2023-10-08T06:26:34;1.75;;;0.70;;
43919;SDS011;29578;51.946;5.874;2023-10-08T06:29:09;1.85;;;0.60;;
43919;SDS011;29578;51.946;5.874;2023-10-08T06:31:44;0.88;;;0.70;;
43919;SDS011;29578;51.946;5.874;2023-10-08T06:34:16;1.48;;;0.60;;
43919;SDS011;29578;51.946;5.874;2023-10-08T06:36:46;0.93;;;0.67;;
43919;SDS011;29578;51.946;5.874;2023-10-08T06:39:13;1.48;;;0.50;;
43919;SDS011;29578;51.946;5.874;2023-10-08T06:41:44;0.65;;;0.50;;
43919;SDS011;29578;51.946;5.874;2023-10-08T06:44:11;1.88;;;0.60;;
43919;SDS011;29578;51.946;5.874;2023-10-08T06:46:41;1.63;;;0.60;;
43919;SDS011;29578;51.946;5.874;2023-10-08T06:49:13;1.42;;;0.60;;
43919;SDS011;29578;51.946;5.874;2023-10-08T06:51:59;1.80;;;0.60;;
43919;SDS011;29578;51.946;5.874;2023-10-08T06:54:36;1.80;;;0.50;;
43919;SDS011;29578;51.946;5.874;2023-10-08T06:57:08;1.25;;;0.50;;
43919;SDS011;29578;51.946;5.874;2023-10-08T06:59:38;1.35;;;0.60;;
43919;SDS011;29578;51.946;5.874;2023-10-08T07:02:07;0.75;;;0.47;;
43919;SDS011;29578;51.946;5.874;2023-10-08T07:04:35;0.85;;;0.50;;
43919;SDS011;29578;51.946;5.874;2023-10-08T07:07:00;0.55;;;0.50;;
43919;SDS011;29578;51.946;5.874;2023-10-08T07:09:26;0.93;;;0.40;;
43919;SDS011;29578;51.946;5.874;2023-10-08T07:11:58;0.52;;;0.50;;
43919;SDS011;29578;51.946;5.874;2023-10-08T07:14:30;0.55;;;0.32;;
43919;SDS011;29578;51.946;5.874;2023-10-08T07:16:57;1.23;;;0.65;;
43919;SDS011;29578;51.946;5.874;2023-10-08T07:19:24;0.73;;;0.50;;
43919;SDS011;29578;51.946;5.874;2023-10-08T07:22:05;0.75;;;0.65;;
43919;SDS011;29578;51.946;5.874;2023-10-08T07:24:43;1.58;;;0.50;;
43919;SDS011;29578;51.946;5.874;2023-10-08T07:27:11;0.50;;;0.50;;
43919;SDS011;29578;51.946;5.874;2023-10-08T07:29:36;0.50;;;0.50;;
43919;SDS011;29578;51.946;5.874;2023-10-08T07:32:02;0.45;;;0.43;;
43919;SDS011;29578;51.946;5.874;2023-10-08T07:34:37;0.70;;;0.65;;
43919;SDS011;29578;51.946;5.874;2023-10-08T07:37:04;0.60;;;0.60;;
43919;SDS011;29578;51.946;5.874;2023-10-08T07:39:31;0.55;;;0.55;;
43919;SDS011;29578;51.946;5.874;2023-10-08T07:42:10;0.65;;;0.60;;
43919;SDS011;29578;51.946;5.874;2023-10-08T07:44:39;0.75;;;0.70;;
43919;SDS011;29578;51.946;5.874;2023-10-08T07:47:07;0.80;;;0.70;;
43919;SDS011;29578;51.946;5.874;2023-10-08T07:49:37;0.63;;;0.60;;
43919;SDS011;29578;51.946;5.874;2023-10-08T07:52:08;0.90;;;0.75;;
43919;SDS011;29578;51.946;5.874;2023-10-08T07:54:34;0.68;;;0.55;;
43919;SDS011;29578;51.946;5.874;2023-10-08T07:57:00;2.15;;;0.60;;
43919;SDS011;29578;51.946;5.874;2023-10-08T07:59:36;0.98;;;0.70;;
43919;SDS011;29578;51.946;5.874;2023-10-08T08:02:05;1.30;;;0.85;;
43919;SDS011;29578;51.946;5.874;2023-10-08T08:04:35;1.20;;;0.93;;
43919;SDS011;29578;51.946;5.874;2023-10-08T08:07:05;1.35;;;0.98;;
43919;SDS011;29578;51.946;5.874;2023-10-08T08:09:31;1.00;;;0.90;;
43919;SDS011;29578;51.946;5.874;2023-10-08T08:12:04;1.27;;;0.90;;
43919;SDS011;29578;51.946;5.874;2023-10-08T08:14:36;1.10;;;0.90;;
43919;SDS011;29578;51.946;5.874;2023-10-08T08:17:06;0.70;;;0.60;;
43919;SDS011;29578;51.946;5.874;2023-10-08T08:19:41;1.58;;;0.90;;
43919;SDS011;29578;51.946;5.874;2023-10-08T08:22:10;1.02;;;0.77;;
43919;SDS011;29578;51.946;5.874;2023-10-08T08:24:40;0.85;;;0.65;;
43919;SDS011;29578;51.946;5.874;2023-10-08T08:27:10;0.85;;;0.60;;
43919;SDS011;29578;51.946;5.874;2023-10-08T08:29:50;0.82;;;0.70;;
43919;SDS011;29578;51.946;5.874;2023-10-08T08:32:20;0.95;;;0.60;;
43919;SDS011;29578;51.946;5.874;2023-10-08T08:34:48;0.90;;;0.70;;
43919;SDS011;29578;51.946;5.874;2023-10-08T08:37:16;2.03;;;0.80;;
43919;SDS011;29578;51.946;5.874;2023-10-08T08:39:42;0.85;;;0.73;;
43919;SDS011;29578;51.946;5.874;2023-10-08T08:42:08;0.85;;;0.73;;
43919;SDS011;29578;51.946;5.874;2023-10-08T08:44:36;0.57;;;0.50;;
43919;SDS011;29578;51.946;5.874;2023-10-08T08:47:12;0.77;;;0.60;;
43919;SDS011;29578;51.946;5.874;2023-10-08T08:49:42;0.88;;;0.80;;
43919;SDS011;29578;51.946;5.874;2023-10-08T08:52:10;0.82;;;0.50;;
43919;SDS011;29578;51.946;5.874;2023-10-08T08:54:37;0.60;;;0.60;;
43919;SDS011;29578;51.946;5.874;2023-10-08T08:57:09;1.05;;;0.70;;
43919;SDS011;29578;51.946;5.874;2023-10-08T08:59:42;0.68;;;0.50;;
43919;SDS011;29578;51.946;5.874;2023-10-08T09:02:13;0.82;;;0.60;;
43919;SDS011;29578;51.946;5.874;2023-10-08T09:04:40;1.17;;;0.70;;
43919;SDS011;29578;51.946;5.874;2023-10-08T09:07:07;1.63;;;0.70;;
43919;SDS011;29578;51.946;5.874;2023-10-08T09:09:33;0.82;;;0.68;;
43919;SDS011;29578;51.946;5.874;2023-10-08T09:12:04;1.45;;;0.60;;
43919;SDS011;29578;51.946;5.874;2023-10-08T09:14:33;0.60;;;0.60;;
43919;SDS011;29578;51.946;5.874;2023-10-08T09:17:01;0.93;;;0.60;;
43919;SDS011;29578;51.946;5.874;2023-10-08T09:19:30;0.30;;;0.30;;
43919;SDS011;29578;51.946;5.874;2023-10-08T09:22:02;0.68;;;0.50;;
43919;SDS011;29578;51.946;5.874;2023-10-08T09:24:33;1.17;;;0.60;;
43919;SDS011;29578;51.946;5.874;2023-10-08T09:27:03;0.55;;;0.40;;
43919;SDS011;29578;51.946;5.874;2023-10-08T09:29:33;0.37;;;0.37;;
43919;SDS011;29578;51.946;5.874;2023-10-08T09:32:05;1.23;;;0.60;;
43919;SDS011;29578;51.946;5.874;2023-10-08T09:34:35;0.43;;;0.40;;
43919;SDS011;29578;51.946;5.874;2023-10-08T09:37:05;0.45;;;0.43;;
43919;SDS011;29578;51.946;5.874;2023-10-08T09:39:33;1.45;;;0.52;;
43919;SDS011;29578;51.946;5.874;2023-10-08T09:42:03;0.20;;;0.20;;
43919;SDS011;29578;51.946;5.874;2023-10-08T09:44:31;0.82;;;0.30;;
43919;SDS011;29578;51.946;5.874;2023-10-08T09:47:02;1.02;;;0.52;;
43919;SDS011;29578;51.946;5.874;2023-10-08T09:49:31;0.55;;;0.35;;
43919;SDS011;29578;51.946;5.874;2023-10-08T09:52:01;0.63;;;0.40;;
43919;SDS011;29578;51.946;5.874;2023-10-08T09:54:31;0.10;;;0.10;;
43919;SDS011;29578;51.946;5.874;2023-10-08T09:57:16;0.43;;;0.40;;
43919;SDS011;29578;51.946;5.874;2023-10-08T09:59:43;0.40;;;0.40;;
43919;SDS011;29578;51.946;5.874;2023-10-08T10:02:11;0.50;;;0.30;;
43919;SDS011;29578;51.946;5.874;2023-10-08T10:04:44;0.60;;;0.40;;
43919;SDS011;29578;51.946;5.874;2023-10-08T10:07:10;0.55;;;0.22;;
43919;SDS011;29578;51.946;5.874;2023-10-08T10:09:42;0.30;;;0.30;;
43919;SDS011;29578;51.946;5.874;2023-10-08T10:12:10;0.28;;;0.28;;
43919;SDS011;29578;51.946;5.874;2023-10-08T10:14:52;1.23;;;0.40;;
43919;SDS011;29578;51.946;5.874;2023-10-08T10:17:22;0.25;;;0.22;;
43919;SDS011;29578;51.946;5.874;2023-10-08T10:19:53;0.25;;;0.25;;
43919;SDS011;29578;51.946;5.874;2023-10-08T10:22:27;0.40;;;0.40;;
43919;SDS011;29578;51.946;5.874;2023-10-08T10:24:54;0.20;;;0.20;;
43919;SDS011;29578;51.946;5.874;2023-10-08T10:27:22;0.22;;;0.22;;
43919;SDS011;29578;51.946;5.874;2023-10-08T10:29:47;0.40;;;0.30;;
43919;SDS011;29578;51.946;5.874;2023-10-08T10:32:15;0.50;;;0.30;;
43919;SDS011;29578;51.946;5.874;2023-10-08T10:34:42;0.38;;;0.30;;
43919;SDS011;29578;51.946;5.874;2023-10-08T10:37:09;0.30;;;0.30;;
43919;SDS011;29578;51.946;5.874;2023-10-08T10:39:52;0.45;;;0.32;;
43919;SDS011;29578;51.946;5.874;2023-10-08T10:42:20;0.60;;;0.40;;
43919;SDS011;29578;51.946;5.874;2023-10-08T10:44:47;0.88;;;0.50;;
43919;SDS011;29578;51.946;5.874;2023-10-08T10:47:16;0.60;;;0.35;;
43919;SDS011;29578;51.946;5.874;2023-10-08T10:49:58;0.20;;;0.20;;
43919;SDS011;29578;51.946;5.874;2023-10-08T10:52:46;0.60;;;0.30;;
43919;SDS011;29578;51.946;5.874;2023-10-08T10:55:17;0.50;;;0.38;;
43919;SDS011;29578;51.946;5.874;2023-10-08T10:57:47;0.65;;;0.40;;
43919;SDS011;29578;51.946;5.874;2023-10-08T11:00:22;0.70;;;0.60;;
43919;SDS011;29578;51.946;5.874;2023-10-08T11:03:08;0.82;;;0.45;;
43919;SDS011;29578;51.946;5.874;2023-10-08T11:05:41;1.15;;;0.52;;
43919;SDS011;29578;51.946;5.874;2023-10-08T11:08:13;1.65;;;0.50;;
43919;SDS011;29578;51.946;5.874;2023-10-08T11:10:43;1.17;;;0.40;;
43919;SDS011;29578;51.946;5.874;2023-10-08T11:13:16;0.20;;;0.20;;
43919;SDS011;29578;51.946;5.874;2023-10-08T11:15:45;0.40;;;0.40;;
43919;SDS011;29578;51.946;5.874;2023-10-08T11:18:16;0.30;;;0.20;;
43919;SDS011;29578;51.946;5.874;2023-10-08T11:20:44;0.45;;;0.45;;
43919;SDS011;29578;51.946;5.874;2023-10-08T11:23:10;0.75;;;0.40;;
43919;SDS011;29578;51.946;5.874;2023-10-08T11:25:57;0.30;;;0.30;;
43919;SDS011;29578;51.946;5.874;2023-10-08T11:28:28;0.30;;;0.30;;
43919;SDS011;29578;51.946;5.874;2023-10-08T11:30:54;0.40;;;0.40;;
43919;SDS011;29578;51.946;5.874;2023-10-08T11:33:24;0.40;;;0.40;;
43919;SDS011;29578;51.946;5.874;2023-10-08T11:36:08;0.30;;;0.30;;
43919;SDS011;29578;51.946;5.874;2023-10-08T11:38:43;0.73;;;0.50;;
43919;SDS011;29578;51.946;5.874;2023-10-08T11:41:13;0.60;;;0.40;;
43919;SDS011;29578;51.946;5.874;2023-10-08T11:43:48;0.88;;;0.55;;
43919;SDS011;29578;51.946;5.874;2023-10-08T11:46:20;0.30;;;0.30;;
43919;SDS011;29578;51.946;5.874;2023-10-08T11:48:50;0.35;;;0.30;;
43919;SDS011;29578;51.946;5.874;2023-10-08T11:51:16;0.40;;;0.40;;
43919;SDS011;29578;51.946;5.874;2023-10-08T11:53:43;0.40;;;0.40;;
43919;SDS011;29578;51.946;5.874;2023-10-08T11:56:11;0.60;;;0.40;;
43919;SDS011;29578;51.946;5.874;2023-10-08T11:58:40;0.47;;;0.35;;
43919;SDS011;29578;51.946;5.874;2023-10-08T12:01:10;0.32;;;0.28;;
43919;SDS011;29578;51.946;5.874;2023-10-08T12:03:42;0.40;;;0.40;;
43919;SDS011;29578;51.946;5.874;2023-10-08T12:06:09;0.35;;;0.35;;
43919;SDS011;29578;51.946;5.874;2023-10-08T12:08:40;0.30;;;0.30;;
43919;SDS011;29578;51.946;5.874;2023-10-08T12:11:06;0.30;;;0.30;;
43919;SDS011;29578;51.946;5.874;2023-10-08T12:13:37;0.85;;;0.32;;
43919;SDS011;29578;51.946;5.874;2023-10-08T12:16:03;0.40;;;0.30;;
43919;SDS011;29578;51.946;5.874;2023-10-08T12:18:47;0.28;;;0.28;;
43919;SDS011;29578;51.946;5.874;2023-10-08T12:21:18;0.30;;;0.30;;
43919;SDS011;29578;51.946;5.874;2023-10-08T12:23:44;0.50;;;0.40;;
43919;SDS011;29578;51.946;5.874;2023-10-08T12:26:12;0.28;;;0.28;;
43919;SDS011;29578;51.946;5.874;2023-10-08T12:28:41;0.30;;;0.30;;
43919;SDS011;29578;51.946;5.874;2023-10-08T12:31:11;0.40;;;0.32;;
43919;SDS011;29578;51.946;5.874;2023-10-08T12:33:37;0.30;;;0.30;;
43919;SDS011;29578;51.946;5.874;2023-10-08T12:36:05;0.77;;;0.40;;
43919;SDS011;29578;51.946;5.874;2023-10-08T12:38:36;0.43;;;0.40;;
43919;SDS011;29578;51.946;5.874;2023-10-08T12:41:02;0.43;;;0.32;;
43919;SDS011;29578;51.946;5.874;2023-10-08T12:43:37;0.30;;;0.30;;
43919;SDS011;29578;51.946;5.874;2023-10-08T12:46:07;0.40;;;0.40;;
43919;SDS011;29578;51.946;5.874;2023-10-08T12:48:41;0.63;;;0.55;;
43919;SDS011;29578;51.946;5.874;2023-10-08T12:51:09;0.40;;;0.32;;
43919;SDS011;29578;51.946;5.874;2023-10-08T12:53:36;0.85;;;0.50;;
43919;SDS011;29578;51.946;5.874;2023-10-08T12:56:03;0.30;;;0.30;;
43919;SDS011;29578;51.946;5.874;2023-10-08T12:58:31;1.45;;;0.50;;
43919;SDS011;29578;51.946;5.874;2023-10-08T13:01:07;0.75;;;0.50;;
43919;SDS011;29578;51.946;5.874;2023-10-08T13:03:35;0.60;;;0.45;;
43919;SDS011;29578;51.946;5.874;2023-10-08T13:06:06;0.30;;;0.30;;
43919;SDS011;29578;51.946;5.874;2023-10-08T13:08:36;0.40;;;0.40;;
43919;SDS011;29578;51.946;5.874;2023-10-08T13:11:02;1.33;;;0.57;;
43919;SDS011;29578;51.946;5.874;2023-10-08T13:13:29;0.73;;;0.50;;
43919;SDS011;29578;51.946;5.874;2023-10-08T13:15:57;1.75;;;0.43;;
43919;SDS011;29578;51.946;5.874;2023-10-08T13:18:28;0.47;;;0.40;;
43919;SDS011;29578;51.946;5.874;2023-10-08T13:20:54;0.45;;;0.38;;
43919;SDS011;29578;51.946;5.874;2023-10-08T13:23:20;0.50;;;0.50;;
43919;SDS011;29578;51.946;5.874;2023-10-08T13:25:49;0.82;;;0.40;;
43919;SDS011;29578;51.946;5.874;2023-10-08T13:28:29;0.30;;;0.30;;
43919;SDS011;29578;51.946;5.874;2023-10-08T13:30:55;0.63;;;0.57;;
43919;SDS011;29578;51.946;5.874;2023-10-08T13:33:21;0.50;;;0.50;;
43919;SDS011;29578;51.946;5.874;2023-10-08T13:35:48;0.55;;;0.52;;
43919;SDS011;29578;51.946;5.874;2023-10-08T13:38:15;0.52;;;0.47;;
43919;SDS011;29578;51.946;5.874;2023-10-08T13:40:45;0.65;;;0.65;;
43919;SDS011;29578;51.946;5.874;2023-10-08T13:43:26;0.70;;;0.70;;
43919;SDS011;29578;51.946;5.874;2023-10-08T13:45:59;0.52;;;0.52;;
43919;SDS011;29578;51.946;5.874;2023-10-08T13:48:29;0.80;;;0.73;;
43919;SDS011;29578;51.946;5.874;2023-10-08T13:50:57;0.90;;;0.70;;
43919;SDS011;29578;51.946;5.874;2023-10-08T13:53:25;0.52;;;0.45;;
43919;SDS011;29578;51.946;5.874;2023-10-08T13:55:55;0.40;;;0.40;;
43919;SDS011;29578;51.946;5.874;2023-10-08T13:58:23;0.40;;;0.40;;
43919;SDS011;29578;51.946;5.874;2023-10-08T14:00:49;0.50;;;0.40;;
43919;SDS011;29578;51.946;5.874;2023-10-08T14:03:18;0.80;;;0.40;;
43919;SDS011;29578;51.946;5.874;2023-10-08T14:05:46;0.52;;;0.52;;
43919;SDS011;29578;51.946;5.874;2023-10-08T14:08:16;0.45;;;0.45;;
43919;SDS011;29578;51.946;5.874;2023-10-08T14:10:43;0.45;;;0.45;;
43919;SDS011;29578;51.946;5.874;2023-10-08T14:13:09;0.73;;;0.50;;
43919;SDS011;29578;51.946;5.874;2023-10-08T14:15:35;0.40;;;0.40;;
43919;SDS011;29578;51.946;5.874;2023-10-08T14:18:11;0.60;;;0.57;;
43919;SDS011;29578;51.946;5.874;2023-10-08T14:20:41;0.43;;;0.43;;
43919;SDS011;29578;51.946;5.874;2023-10-08T14:23:09;0.57;;;0.52;;
43919;SDS011;29578;51.946;5.874;2023-10-08T14:25:35;0.45;;;0.45;;
43919;SDS011;29578;51.946;5.874;2023-10-08T14:28:07;0.43;;;0.43;;
43919;SDS011;29578;51.946;5.874;2023-10-08T14:30:33;0.40;;;0.40;;
43919;SDS011;29578;51.946;5.874;2023-10-08T14:33:06;0.50;;;0.50;;
43919;SDS011;29578;51.946;5.874;2023-10-08T14:35:34;0.60;;;0.50;;
43919;SDS011;29578;51.946;5.874;2023-10-08T14:38:11;0.70;;;0.63;;
43919;SDS011;29578;51.946;5.874;2023-10-08T14:40:51;0.82;;;0.70;;
43919;SDS011;29578;51.946;5.874;2023-10-08T14:43:36;0.77;;;0.70;;
43919;SDS011;29578;51.946;5.874;2023-10-08T14:46:03;1.05;;;0.77;;
43919;SDS011;29578;51.946;5.874;2023-10-08T14:48:32;0.88;;;0.70;;
43919;SDS011;29578;51.946;5.874;2023-10-08T14:51:00;0.80;;;0.80;;
43919;SDS011;29578;51.946;5.874;2023-10-08T14:53:28;1.33;;;0.90;;
43919;SDS011;29578;51.946;5.874;2023-10-08T14:55:56;1.00;;;0.90;;
43919;SDS011;29578;51.946;5.874;2023-10-08T14:58:23;1.50;;;1.15;;
43919;SDS011;29578;51.946;5.874;2023-10-08T15:00:50;1.10;;;1.00;;
43919;SDS011;29578;51.946;5.874;2023-10-08T15:03:19;1.50;;;1.00;;
43919;SDS011;29578;51.946;5.874;2023-10-08T15:05:46;1.40;;;1.00;;
43919;SDS011;29578;51.946;5.874;2023-10-08T15:08:12;1.20;;;0.95;;
43919;SDS011;29578;51.946;5.874;2023-10-08T15:10:39;1.88;;;1.40;;